Main page
METAR-TAF:

METAR-TAF

Airports :

Newquay Cornwall, England

Cornwall Airport Newquay

latitude: 50-26N, longitude: 005-00W, elevation: 119 m

Current weather observation

The report was made 23 minutes ago, at 18:20 UTC
Wind 15 kt from the East/Southeast
Temperature 10°C
Humidity 66%
Pressure 1019 hPa
Visibility 10 km or more
no clouds below 1500 m and no cumulonimbus

METAR: EGHQ 261820Z 11015KT CAVOK 10/04 Q1019

Time: 19:43 (18:43 UTC)

Forecast

The report was made 1 hour and 47 minutes ago, at 16:56 UTC
Forecast valid from 26 at 18 UTC to 26 at 21 UTC
Wind 14 kt from the East
Visibility 10 km or more
no clouds below 1500 m and no cumulonimbus
Temporary
from 26 at 18 UTC to 26 at 21 UTC
Wind 17 kt from the East/Southeast with gusts up to 27 kt

TAF: EGHQ 261656Z 2618/2621 10014KT CAVOK TEMPO 2618/2621 11017G27KT

Weather observations and forecasts of more than 4000 airports (METAR and TAF reports).

The available stations are represented by yellow and red dots on the map.

Hover mouse over dot to see the name of the station.

Then click to see weather observations and forecasts.

To change the map : click on the green buttons with a black cross to zoom in, on the green button with a dash to zoom out, or on the green arrows for adjacent maps.


METAR-TAF: